Pagina principală
METAR-TAF:

METAR-TAF

Aeroporturi :

Opelousas, Louisiana, Statele Unite ale Americii

Latitudine: 30-33-30N, longitudine: 092-05-58W, elevație: 23 m

Observații meteo curente

Raportul a fost făcut în urmă cu 32 de minute, la 09:50 UTC
Vânt calm
Temperatură 24°C
Umiditate 94%
Presiune 1015 hPa
Vizibilitate: 16.1 km

METAR: KOPL 170950Z AUTO 00000KT 10SM 24/23 A2998 RMK AO2 LTG DSNT SE T02380230

Ora: 05:22 (10:22 UTC)


TAF: lipsă

Observații și prognoze meteo pentru peste 4.000 de aeroporturi (rapoarte METAR și TAF).

Stațiile disponibile sunt reprezentate pe hartă prin puncte galbene și roșii.

Țineți indicatorul mouse-ului pe punctul dorit pentru a vedea denumirea stației.

Apoi, faceți clic pentru a vedea observațiile și prognozele meteorologice.

Pentru a schimba harta: Pentru mărire, faceți clic pe butoanele verzi cu cruce neagră; pentru micșorare, pe butonul verde cu o liniuță; pentru hărți învecinate, pe săgețile verzi.


METAR-TAF: